createdAt,value
2022-08-30T00:01:14.339Z,7.30
2022-08-30T00:03:46.630Z,9.68
2022-08-30T00:06:16.594Z,3.55
2022-08-30T00:08:45.291Z,4.97
2022-08-30T00:11:15.579Z,4.75
2022-08-30T00:13:44.635Z,5.88
2022-08-30T00:16:12.955Z,5.60
2022-08-30T00:18:40.731Z,4.07
2022-08-30T00:21:08.971Z,3.63
2022-08-30T00:23:36.780Z,5.00
2022-08-30T00:26:04.602Z,4.05
2022-08-30T00:28:33.895Z,3.85
2022-08-30T00:31:02.629Z,3.67
2022-08-30T00:33:30.406Z,6.72
2022-08-30T00:35:58.217Z,3.20
2022-08-30T00:38:25.335Z,9.63
2022-08-30T00:40:52.930Z,6.53
2022-08-30T00:43:27.844Z,4.20
2022-08-30T00:45:55.859Z,5.25
2022-08-30T00:48:23.520Z,4.25
2022-08-30T00:51:00.666Z,4.50
2022-08-30T00:53:33.159Z,3.05
2022-08-30T00:56:01.758Z,4.93
2022-08-30T00:58:34.787Z,7.30
2022-08-30T01:01:02.562Z,10.25
2022-08-30T01:03:30.304Z,5.05
2022-08-30T01:05:59.049Z,4.68
2022-08-30T01:08:27.238Z,5.25
2022-08-30T01:10:55.958Z,4.38
2022-08-30T01:13:25.481Z,4.72
2022-08-30T01:15:52.884Z,4.55
2022-08-30T01:18:22.228Z,3.20
2022-08-30T01:21:03.650Z,3.13
2022-08-30T01:23:32.388Z,7.68
2022-08-30T01:26:00.775Z,3.47
2022-08-30T01:28:30.328Z,5.85
2022-08-30T01:30:57.365Z,3.60
2022-08-30T01:33:25.163Z,3.05
2022-08-30T01:35:59.509Z,4.07
2022-08-30T01:38:40.580Z,4.50
2022-08-30T01:41:31.161Z,4.43
2022-08-30T01:44:05.007Z,3.92
2022-08-30T01:46:38.914Z,4.78
2022-08-30T01:49:11.615Z,4.22
2022-08-30T01:51:39.689Z,5.88
2022-08-30T01:54:07.085Z,3.40
2022-08-30T01:56:34.480Z,4.78
2022-08-30T01:59:03.033Z,4.90
2022-08-30T02:01:37.021Z,4.18
2022-08-30T02:04:05.905Z,3.53
2022-08-30T02:06:33.018Z,4.35
2022-08-30T02:09:00.555Z,4.03
2022-08-30T02:11:28.605Z,4.82
2022-08-30T02:13:55.872Z,4.10
2022-08-30T02:16:24.670Z,3.00
2022-08-30T02:18:53.973Z,4.95
2022-08-30T02:21:21.037Z,6.35
2022-08-30T02:23:48.427Z,12.15
2022-08-30T02:26:16.146Z,4.65
2022-08-30T02:28:49.899Z,4.68
2022-08-30T02:31:19.467Z,5.10
2022-08-30T02:33:51.063Z,3.65
2022-08-30T02:36:20.945Z,3.60
2022-08-30T02:38:49.945Z,5.53
2022-08-30T02:41:18.053Z,3.05
2022-08-30T02:43:44.959Z,3.72
2022-08-30T02:46:11.985Z,4.72
2022-08-30T02:48:39.334Z,3.35
2022-08-30T02:51:11.305Z,4.45
2022-08-30T02:53:40.703Z,5.57
2022-08-30T02:56:08.431Z,2.97
2022-08-30T02:58:36.182Z,6.15
2022-08-30T03:01:04.281Z,5.05
2022-08-30T03:03:32.433Z,5.13
2022-08-30T03:05:59.981Z,4.00
2022-08-30T03:08:26.974Z,3.95
2022-08-30T03:10:53.917Z,4.40
2022-08-30T03:13:21.150Z,7.10
2022-08-30T03:15:50.382Z,4.80
2022-08-30T03:18:21.657Z,5.13
2022-08-30T03:20:54.682Z,4.82
2022-08-30T03:23:24.693Z,4.88
2022-08-30T03:25:53.517Z,4.75
2022-08-30T03:28:20.718Z,4.20
2022-08-30T03:30:48.040Z,4.90
2022-08-30T03:33:15.262Z,5.60
2022-08-30T03:35:42.262Z,4.47
2022-08-30T03:38:09.218Z,6.63
2022-08-30T03:40:36.369Z,4.20
2022-08-30T03:43:04.085Z,5.45
2022-08-30T03:45:32.556Z,4.55
2022-08-30T03:48:00.261Z,4.75
2022-08-30T03:50:27.249Z,4.00
2022-08-30T03:52:54.366Z,9.73
2022-08-30T03:55:21.611Z,4.53
2022-08-30T03:57:48.712Z,5.10
2022-08-30T04:00:19.998Z,5.80
2022-08-30T04:02:46.961Z,5.07
2022-08-30T04:05:14.799Z,6.88
2022-08-30T04:07:45.834Z,6.32
2022-08-30T04:10:12.849Z,4.80
2022-08-30T04:12:39.864Z,7.20
2022-08-30T04:15:09.412Z,5.38
2022-08-30T04:17:36.451Z,4.15
2022-08-30T04:20:04.139Z,5.88
2022-08-30T04:22:31.041Z,5.38
2022-08-30T04:24:57.955Z,3.45
2022-08-30T04:27:24.978Z,6.25
2022-08-30T04:29:51.898Z,6.22
2022-08-30T04:32:23.213Z,5.40
2022-08-30T04:34:50.114Z,5.18
2022-08-30T04:37:17.087Z,6.22
2022-08-30T04:39:44.352Z,5.63
2022-08-30T04:42:11.452Z,12.10
2022-08-30T04:44:38.577Z,6.45
2022-08-30T04:47:05.515Z,5.60
2022-08-30T04:49:33.125Z,7.75
2022-08-30T04:52:00.137Z,5.07
2022-08-30T04:54:27.518Z,6.90
2022-08-30T04:56:54.487Z,4.95
2022-08-30T04:59:22.124Z,7.28
2022-08-30T05:01:49.313Z,7.15
2022-08-30T05:04:16.340Z,5.30
2022-08-30T05:06:44.174Z,6.68
2022-08-30T05:09:11.546Z,10.90
2022-08-30T05:11:38.943Z,9.88
2022-08-30T05:14:06.770Z,8.52
2022-08-30T05:16:33.795Z,6.60
2022-08-30T05:19:01.528Z,7.10
2022-08-30T05:21:29.506Z,6.78
2022-08-30T05:24:00.099Z,7.75
2022-08-30T05:26:31.679Z,10.23
2022-08-30T05:28:59.100Z,6.97
2022-08-30T05:31:31.694Z,7.15
2022-08-30T05:33:59.110Z,8.30
2022-08-30T05:36:30.085Z,7.63
2022-08-30T05:38:57.950Z,6.53
2022-08-30T05:41:26.612Z,9.25
2022-08-30T05:43:57.072Z,13.88
2022-08-30T05:46:24.731Z,13.15
2022-08-30T05:48:52.060Z,14.00
2022-08-30T05:51:23.721Z,13.15
2022-08-30T05:53:53.600Z,10.68
2022-08-30T05:56:28.716Z,19.27
2022-08-30T05:58:55.618Z,15.30
2022-08-30T06:01:27.304Z,12.48
2022-08-30T06:04:00.378Z,18.48
2022-08-30T06:08:58.235Z,13.73
2022-08-30T06:11:26.514Z,12.88
2022-08-30T06:13:55.270Z,13.25
2022-08-30T06:16:26.463Z,13.60
2022-08-30T06:18:56.060Z,11.77
2022-08-30T06:21:30.990Z,12.55
2022-08-30T06:23:58.628Z,13.50
2022-08-30T06:26:27.436Z,12.10
2022-08-30T06:28:55.526Z,12.13
2022-08-30T06:31:24.559Z,16.55
2022-08-30T06:33:52.832Z,12.85
2022-08-30T06:36:24.806Z,12.95
2022-08-30T06:38:54.776Z,13.00
2022-08-30T06:41:26.755Z,14.57
2022-08-30T06:43:54.339Z,11.65
2022-08-30T06:46:28.738Z,10.27
2022-08-30T06:48:57.366Z,11.45
2022-08-30T06:51:28.752Z,7.65
2022-08-30T06:53:57.304Z,9.00
2022-08-30T06:56:27.383Z,6.53
2022-08-30T06:58:54.489Z,9.40
2022-08-30T07:01:26.392Z,5.78
2022-08-30T07:03:54.417Z,8.00
2022-08-30T07:06:22.347Z,3.88
2022-08-30T07:08:56.065Z,7.00
2022-08-30T07:11:37.737Z,5.88
2022-08-30T07:14:06.009Z,4.90
2022-08-30T07:16:33.742Z,4.30
2022-08-30T07:19:02.993Z,10.05
2022-08-30T07:21:39.161Z,6.80
2022-08-30T07:24:08.899Z,8.15
2022-08-30T07:26:41.355Z,4.32
2022-08-30T07:29:09.628Z,3.75
2022-08-30T07:31:37.606Z,3.08
2022-08-30T07:34:06.564Z,3.67
2022-08-30T07:36:34.997Z,2.72
2022-08-30T07:39:03.848Z,9.23
2022-08-30T07:41:35.617Z,8.38
2022-08-30T07:44:03.346Z,4.43
2022-08-30T07:46:30.432Z,3.80
2022-08-30T07:49:00.747Z,2.50
2022-08-30T07:51:31.634Z,10.75
2022-08-30T07:53:58.738Z,1.80
2022-08-30T07:56:27.022Z,1.58
2022-08-30T07:58:54.739Z,1.85
2022-08-30T08:01:22.829Z,2.38
2022-08-30T08:03:50.834Z,3.85
2022-08-30T08:06:20.942Z,1.90
2022-08-30T08:08:48.309Z,2.72
2022-08-30T08:11:23.084Z,5.70
2022-08-30T08:13:53.935Z,5.10
2022-08-30T08:16:27.021Z,3.28
2022-08-30T08:18:54.722Z,3.80
2022-08-30T08:21:23.544Z,4.18
2022-08-30T08:23:51.748Z,5.88
2022-08-30T08:26:20.163Z,3.42
2022-08-30T08:28:47.790Z,4.88
2022-08-30T08:31:33.110Z,6.25
2022-08-30T08:34:06.157Z,2.63
2022-08-30T08:36:35.069Z,6.75
2022-08-30T08:39:04.223Z,6.95
2022-08-30T08:41:49.129Z,3.63
2022-08-30T08:44:43.763Z,1.33
2022-08-30T08:47:41.565Z,2.45
2022-08-30T08:50:18.692Z,2.45
2022-08-30T08:53:45.645Z,3.55
2022-08-30T08:56:15.008Z,3.75
2022-08-30T08:58:55.353Z,3.17
2022-08-30T09:01:30.845Z,1.88
2022-08-30T09:04:03.127Z,1.58
2022-08-30T09:07:21.119Z,6.80
2022-08-30T09:09:48.521Z,3.40
2022-08-30T09:12:15.883Z,4.93
2022-08-30T09:14:55.847Z,1.38
2022-08-30T09:17:23.895Z,9.00
2022-08-30T09:19:56.813Z,4.38
2022-08-30T09:22:26.868Z,2.35
2022-08-30T09:25:14.260Z,2.78
2022-08-30T09:27:44.834Z,5.47
2022-08-30T09:30:26.052Z,5.50
2022-08-30T09:33:01.478Z,2.20
2022-08-30T09:35:50.555Z,5.38
2022-08-30T09:38:22.994Z,4.35
2022-08-30T09:40:57.056Z,2.70
2022-08-30T09:43:35.373Z,3.33
2022-08-30T09:46:02.301Z,1.73
2022-08-30T09:48:44.125Z,2.75
2022-08-30T09:51:11.621Z,1.55
2022-08-30T09:54:18.491Z,4.95
2022-08-30T09:57:12.566Z,2.28
2022-08-30T09:59:57.815Z,4.43
2022-08-30T10:03:35.291Z,2.83
2022-08-30T10:06:28.970Z,5.93
2022-08-30T10:09:23.126Z,0.98
2022-08-30T10:12:23.230Z,2.80
2022-08-30T10:15:15.175Z,3.40
2022-08-30T10:18:13.722Z,4.25
2022-08-30T10:21:06.627Z,1.63
2022-08-30T10:23:41.762Z,2.45
2022-08-30T10:26:49.362Z,1.17
2022-08-30T10:29:54.442Z,2.70
2022-08-30T10:32:28.462Z,4.57
2022-08-30T10:35:08.349Z,3.03
2022-08-30T10:37:58.150Z,4.68
2022-08-30T10:40:59.196Z,2.53
2022-08-30T10:43:41.726Z,1.20
2022-08-30T10:46:38.194Z,2.78
2022-08-30T10:49:21.357Z,4.72
2022-08-30T10:52:00.394Z,4.18
2022-08-30T10:54:58.999Z,1.85
2022-08-30T10:57:26.340Z,1.33
2022-08-30T11:00:11.016Z,3.85
2022-08-30T11:02:55.909Z,1.60
2022-08-30T11:06:01.266Z,2.05
2022-08-30T11:08:52.610Z,1.63
2022-08-30T11:11:50.559Z,3.20
2022-08-30T11:14:20.423Z,0.98
2022-08-30T11:16:55.587Z,1.15
2022-08-30T11:19:38.661Z,2.65
2022-08-30T11:22:38.135Z,2.08
2022-08-30T11:25:14.787Z,7.40
2022-08-30T11:27:49.560Z,1.10
2022-08-30T11:30:28.286Z,1.77
2022-08-30T11:33:07.882Z,0.98
2022-08-30T11:35:50.179Z,2.92
2022-08-30T11:38:40.061Z,1.17
2022-08-30T11:41:48.011Z,7.45
2022-08-30T11:44:22.023Z,1.30
2022-08-30T11:46:58.581Z,1.95
2022-08-30T11:50:19.270Z,4.03
2022-08-30T11:53:29.919Z,1.05
2022-08-30T11:56:12.394Z,1.92
2022-08-30T11:59:04.115Z,3.65
2022-08-30T12:01:49.862Z,1.10
2022-08-30T12:04:19.645Z,3.22
2022-08-30T12:07:00.764Z,2.30
2022-08-30T12:09:28.378Z,2.30
2022-08-30T12:12:11.252Z,1.88
2022-08-30T12:14:52.941Z,1.45
2022-08-30T12:17:45.137Z,1.20
2022-08-30T12:20:23.768Z,4.90
2022-08-30T12:22:53.435Z,2.28
2022-08-30T12:25:34.077Z,2.55
2022-08-30T12:28:32.342Z,4.07
2022-08-30T12:31:11.725Z,1.98
2022-08-30T12:33:46.939Z,1.65
2022-08-30T12:39:29.162Z,4.35
2022-08-30T12:42:06.347Z,10.40
2022-08-30T12:44:34.002Z,3.45
2022-08-30T12:47:04.785Z,9.88
2022-08-30T12:49:36.717Z,2.72
2022-08-30T12:52:23.313Z,2.25
2022-08-30T12:54:53.415Z,1.73
2022-08-30T12:57:43.848Z,5.45
2022-08-30T13:00:36.186Z,2.25
2022-08-30T13:03:24.393Z,4.13
2022-08-30T13:05:52.874Z,4.53
2022-08-30T13:08:50.696Z,1.92
2022-08-30T13:11:21.473Z,1.42
2022-08-30T13:13:53.085Z,2.30
2022-08-30T13:16:24.759Z,15.40
2022-08-30T13:19:36.156Z,10.40
2022-08-30T13:22:05.570Z,2.80
2022-08-30T13:24:32.848Z,2.50
2022-08-30T13:27:07.907Z,3.83
2022-08-30T13:29:35.241Z,5.00
2022-08-30T13:32:02.325Z,4.53
2022-08-30T13:34:33.144Z,2.92
2022-08-30T13:37:01.438Z,8.95
2022-08-30T13:39:29.021Z,13.27
2022-08-30T13:42:31.324Z,2.08
2022-08-30T13:44:43.722Z,2.35
2022-08-30T13:50:00.020Z,3.78
2022-08-30T13:52:28.084Z,2.45
2022-08-30T13:54:57.312Z,1.95
2022-08-30T14:00:19.667Z,2.83
2022-08-30T14:02:55.256Z,2.72
2022-08-30T14:05:48.785Z,6.95
2022-08-30T14:08:48.271Z,7.60
2022-08-30T14:11:21.048Z,0.80
2022-08-30T14:16:41.401Z,1.50
2022-08-30T14:19:09.668Z,0.80
2022-08-30T14:21:36.751Z,3.10
2022-08-30T14:24:06.594Z,2.17
2022-08-30T14:26:42.634Z,2.42
2022-08-30T14:29:14.855Z,1.65
2022-08-30T14:31:42.666Z,1.98
2022-08-30T14:34:11.825Z,9.88
2022-08-30T14:36:42.048Z,4.32
2022-08-30T14:39:14.619Z,7.38
2022-08-30T14:41:51.743Z,2.08
2022-08-30T14:44:21.641Z,1.38
2022-08-30T14:46:50.952Z,2.20
2022-08-30T14:49:19.431Z,4.93
2022-08-30T14:51:48.465Z,1.52
2022-08-30T14:54:21.759Z,1.92
2022-08-30T14:56:48.911Z,3.50
2022-08-30T14:59:18.282Z,3.97
2022-08-30T15:01:46.162Z,2.20
2022-08-30T15:04:15.131Z,1.67
2022-08-30T15:06:45.179Z,1.63
2022-08-30T15:09:18.599Z,2.47
2022-08-30T15:11:51.525Z,4.40
2022-08-30T15:14:18.764Z,5.00
2022-08-30T15:16:45.782Z,1.15
2022-08-30T15:19:13.487Z,2.50
2022-08-30T15:21:44.933Z,2.70
2022-08-30T15:24:17.877Z,0.85
2022-08-30T15:26:45.169Z,1.40
2022-08-30T15:29:18.058Z,1.15
2022-08-30T15:31:49.757Z,2.70
2022-08-30T15:34:20.121Z,4.18
2022-08-30T15:36:48.925Z,4.05
2022-08-30T15:39:18.540Z,2.20
2022-08-30T15:41:46.461Z,2.25
2022-08-30T15:44:23.116Z,2.72
2022-08-30T15:46:50.180Z,1.08
2022-08-30T15:49:20.828Z,1.95
2022-08-30T15:51:51.652Z,2.50
2022-08-30T15:54:23.332Z,4.85
2022-08-30T15:56:52.225Z,3.72
2022-08-30T15:59:19.628Z,2.95
2022-08-30T16:01:47.594Z,2.20
2022-08-30T16:04:18.444Z,5.35
2022-08-30T16:06:46.619Z,1.02
2022-08-30T16:09:13.964Z,2.33
2022-08-30T16:11:41.857Z,1.92
2022-08-30T16:14:09.810Z,2.65
2022-08-30T16:16:39.985Z,2.97
2022-08-30T16:19:09.499Z,2.63
2022-08-30T16:21:37.509Z,2.80
2022-08-30T16:24:07.718Z,1.60
2022-08-30T16:26:37.975Z,4.55
2022-08-30T16:29:07.315Z,2.67
2022-08-30T16:31:37.046Z,4.18
2022-08-30T16:34:04.804Z,1.05
2022-08-30T16:36:34.455Z,2.60
2022-08-30T16:39:02.310Z,1.88
2022-08-30T16:41:29.329Z,2.15
2022-08-30T16:43:59.707Z,1.02
2022-08-30T16:46:28.000Z,4.30
2022-08-30T16:49:01.494Z,4.80
2022-08-30T16:51:31.974Z,3.30
2022-08-30T16:54:02.761Z,1.42
2022-08-30T16:56:32.787Z,4.95
2022-08-30T16:59:02.910Z,3.03
2022-08-30T17:01:34.681Z,4.10
2022-08-30T17:04:03.713Z,2.90
2022-08-30T17:06:31.156Z,2.53
2022-08-30T17:08:59.331Z,4.57
2022-08-30T17:11:27.295Z,4.75
2022-08-30T17:13:54.956Z,5.95
2022-08-30T17:16:27.996Z,3.65
2022-08-30T17:19:00.050Z,3.63
2022-08-30T17:21:29.374Z,1.95
2022-08-30T17:24:02.330Z,3.08
2022-08-30T17:26:35.866Z,2.35
2022-08-30T17:29:04.419Z,3.13
2022-08-30T17:31:31.596Z,3.92
2022-08-30T17:34:03.212Z,1.45
2022-08-30T17:36:32.913Z,1.20
2022-08-30T17:39:10.484Z,3.65
2022-08-30T17:41:43.338Z,5.55
2022-08-30T17:44:15.255Z,2.70
2022-08-30T17:46:42.318Z,2.28
2022-08-30T17:49:10.631Z,3.80
2022-08-30T17:51:41.863Z,3.70
2022-08-30T17:54:12.629Z,2.42
2022-08-30T17:56:41.559Z,4.07
2022-08-30T17:59:10.957Z,3.22
2022-08-30T18:01:41.619Z,3.92
2022-08-30T18:04:10.546Z,2.75
2022-08-30T18:06:37.472Z,6.70
2022-08-30T18:09:08.214Z,0.85
2022-08-30T18:11:39.573Z,1.83
2022-08-30T18:14:11.114Z,2.70
2022-08-30T18:16:53.748Z,3.88
2022-08-30T18:19:27.740Z,1.80
2022-08-30T18:21:55.231Z,1.77
2022-08-30T18:24:23.623Z,1.98
2022-08-30T18:26:52.014Z,2.78
2022-08-30T18:29:26.296Z,3.70
2022-08-30T18:32:02.026Z,2.53
2022-08-30T18:34:29.433Z,3.95
2022-08-30T18:36:56.928Z,7.97
2022-08-30T18:39:24.296Z,8.25
2022-08-30T18:41:54.338Z,3.83
2022-08-30T18:44:33.240Z,5.35
2022-08-30T18:47:03.766Z,6.60
2022-08-30T18:49:34.705Z,2.80
2022-08-30T18:52:08.932Z,1.20
2022-08-30T18:54:51.687Z,5.40
2022-08-30T18:57:22.004Z,3.55
2022-08-30T18:59:49.781Z,0.73
2022-08-30T19:02:17.699Z,5.80
2022-08-30T19:04:47.595Z,4.07
2022-08-30T19:07:17.078Z,4.03
2022-08-30T19:09:45.514Z,1.70
2022-08-30T19:12:13.464Z,3.20
2022-08-30T19:14:40.917Z,2.95
2022-08-30T19:17:08.379Z,2.22
2022-08-30T19:19:45.155Z,1.90
2022-08-30T19:22:16.102Z,0.68
2022-08-30T19:24:43.820Z,1.63
2022-08-30T19:27:10.966Z,4.25
2022-08-30T19:29:39.280Z,2.17
2022-08-30T19:32:06.470Z,2.65
2022-08-30T19:34:33.911Z,1.83
2022-08-30T19:37:01.125Z,1.35
2022-08-30T19:39:28.131Z,4.38
2022-08-30T19:41:55.542Z,2.97
2022-08-30T19:44:22.567Z,3.33
2022-08-30T19:46:52.496Z,2.75
2022-08-30T19:49:20.832Z,6.97
2022-08-30T19:51:48.659Z,6.32
2022-08-30T19:54:15.672Z,4.95
2022-08-30T19:56:45.738Z,1.98
2022-08-30T19:59:15.709Z,2.33
2022-08-30T20:01:43.662Z,3.25
2022-08-30T20:04:13.445Z,6.03
2022-08-30T20:06:43.623Z,3.25
2022-08-30T20:09:14.241Z,1.67
2022-08-30T20:11:42.858Z,2.05
2022-08-30T20:14:13.555Z,1.15
2022-08-30T20:16:41.707Z,4.20
2022-08-30T20:19:11.716Z,2.35
2022-08-30T20:21:39.126Z,2.13
2022-08-30T20:24:09.646Z,6.68
2022-08-30T20:26:38.203Z,1.58
2022-08-30T20:29:06.043Z,2.25
2022-08-30T20:31:34.336Z,4.47
2022-08-30T20:34:02.301Z,4.40
2022-08-30T20:36:29.250Z,2.97
2022-08-30T20:38:56.634Z,1.50
2022-08-30T20:41:24.637Z,7.18
2022-08-30T20:43:53.017Z,2.72
2022-08-30T20:46:20.837Z,5.07
2022-08-30T20:48:49.608Z,6.13
2022-08-30T20:51:20.252Z,3.33
2022-08-30T20:53:47.298Z,2.38
2022-08-30T20:56:21.567Z,4.50
2022-08-30T20:58:51.119Z,3.33
2022-08-30T21:01:18.940Z,2.22
2022-08-30T21:03:47.641Z,2.13
2022-08-30T21:06:17.402Z,4.03
2022-08-30T21:08:44.496Z,1.42
2022-08-30T21:11:13.535Z,3.00
2022-08-30T21:13:40.763Z,5.20
2022-08-30T21:16:08.475Z,4.50
2022-08-30T21:18:39.274Z,2.55
2022-08-30T21:21:21.113Z,1.58
2022-08-30T21:23:50.305Z,1.65
2022-08-30T21:26:18.658Z,4.00
2022-08-30T21:28:50.841Z,6.55
2022-08-30T21:31:22.798Z,3.72
2022-08-30T21:33:52.528Z,2.45
2022-08-30T21:36:40.087Z,2.53
2022-08-30T21:39:08.406Z,2.58
2022-08-30T21:41:37.416Z,1.92
2022-08-30T21:44:08.975Z,2.55
2022-08-30T21:46:37.002Z,1.08
2022-08-30T21:49:07.338Z,3.28
2022-08-30T21:51:39.234Z,2.70
2022-08-30T21:54:09.511Z,1.17
2022-08-30T21:56:39.651Z,5.00
2022-08-30T21:59:07.974Z,2.58
2022-08-30T22:01:36.396Z,1.95
2022-08-30T22:04:07.932Z,2.53
2022-08-30T22:06:37.899Z,2.35
2022-08-30T22:09:09.053Z,2.90
2022-08-30T22:11:37.624Z,4.60
2022-08-30T22:14:06.034Z,4.35
2022-08-30T22:16:34.236Z,3.15
2022-08-30T22:19:01.942Z,2.30
2022-08-30T22:21:33.663Z,4.82
2022-08-30T22:24:00.604Z,3.10
2022-08-30T22:26:28.044Z,1.60
2022-08-30T22:28:55.852Z,1.42
2022-08-30T22:31:24.277Z,1.88
2022-08-30T22:33:52.984Z,2.25
2022-08-30T22:36:32.817Z,2.60
2022-08-30T22:39:02.094Z,4.15
2022-08-30T22:41:34.079Z,5.32
2022-08-30T22:44:02.026Z,2.70
2022-08-30T22:46:29.624Z,3.00
2022-08-30T22:49:07.448Z,4.50
2022-08-30T22:51:34.982Z,3.30
2022-08-30T22:54:03.109Z,2.45
2022-08-30T22:56:30.741Z,3.08
2022-08-30T22:58:58.100Z,2.45
2022-08-30T23:01:38.439Z,1.45
2022-08-30T23:04:08.084Z,3.70
2022-08-30T23:06:35.321Z,6.35
2022-08-30T23:09:04.709Z,1.45
2022-08-30T23:11:33.291Z,2.15
2022-08-30T23:14:02.343Z,3.20
2022-08-30T23:16:29.788Z,5.30
2022-08-30T23:18:56.815Z,1.40
2022-08-30T23:21:29.927Z,2.00
2022-08-30T23:24:16.788Z,3.60
2022-08-30T23:27:03.598Z,2.80
2022-08-30T23:29:49.554Z,1.77
2022-08-30T23:35:25.349Z,2.55
2022-08-30T23:38:21.043Z,2.10
2022-08-30T23:41:07.050Z,3.10
2022-08-30T23:46:38.279Z,3.78
2022-08-30T23:49:24.493Z,1.77
2022-08-30T23:52:09.826Z,2.25
2022-08-30T23:54:57.438Z,3.35
2022-08-30T23:57:44.247Z,1.38
